Time;durP1;ratioP1;P1;durP2;ratioP2;P2;SDS_P1;SDS_P2;PMS_P1;PMS_P2;Temp;Humidity;BMP_temperature;BMP_pressure;BME280_temperature;BME280_humidity;BME280_pressure;Samples;Min_cycle;Max_cycle;Signal;HPM_P1;HPM_P2
2022/03/02 00:00:44;;;;;;;44.17;31.17;;;5.10;99.90;;;;;;4985218;28;20527;-80
2022/03/02 00:03:09;;;;;;;39.60;29.58;;;5.10;99.90;;;;;;4988489;28;20049;-80
2022/03/02 00:05:36;;;;;;;45.50;31.02;;;5.10;99.90;;;;;;4982590;28;20113;-80
2022/03/02 00:08:03;;;;;;;45.92;31.17;;;5.10;99.90;;;;;;4989680;28;20042;-81
2022/03/02 00:10:29;;;;;;;43.92;31.42;;;5.10;99.90;;;;;;4990730;28;20050;-82
2022/03/02 00:12:55;;;;;;;42.22;30.70;;;5.10;99.90;;;;;;4990423;28;20076;-81
2022/03/02 00:15:20;;;;;;;43.80;30.95;;;5.00;99.90;;;;;;4992252;28;20459;-80
2022/03/02 00:17:46;;;;;;;45.35;32.65;;;5.00;99.90;;;;;;4990133;28;20896;-82
2022/03/02 00:20:12;;;;;;;43.63;31.95;;;5.10;99.90;;;;;;4991583;28;20627;-82
2022/03/02 00:22:39;;;;;;;42.67;31.17;;;5.10;99.90;;;;;;4989855;28;20408;-83
2022/03/02 00:25:06;;;;;;;41.38;29.75;;;5.00;99.90;;;;;;4992788;28;20038;-81
2022/03/02 00:27:31;;;;;;;40.00;29.70;;;5.10;99.90;;;;;;4989657;28;20117;-82
2022/03/02 00:29:57;;;;;;;47.75;31.98;;;5.00;99.90;;;;;;4987488;28;20180;-82
2022/03/02 00:32:23;;;;;;;54.15;33.17;;;5.00;99.90;;;;;;4991371;28;20081;-83
2022/03/02 00:34:48;;;;;;;38.70;29.13;;;5.00;99.90;;;;;;4991226;28;20055;-79
2022/03/02 00:37:14;;;;;;;43.78;29.30;;;5.00;99.90;;;;;;4990630;28;20137;-80
2022/03/02 00:39:41;;;;;;;46.10;32.38;;;4.90;99.90;;;;;;4992915;28;20428;-80
2022/03/02 00:42:06;;;;;;;40.25;30.23;;;4.90;99.90;;;;;;4989935;28;20552;-80
2022/03/02 00:44:33;;;;;;;43.15;30.67;;;4.80;99.90;;;;;;4989285;28;20141;-80
2022/03/02 00:46:59;;;;;;;46.13;29.35;;;4.90;99.90;;;;;;5000119;28;20046;-81
2022/03/02 00:49:26;;;;;;;48.08;31.25;;;4.90;99.90;;;;;;4994629;28;20057;-80
2022/03/02 00:51:54;;;;;;;40.50;29.50;;;4.80;99.90;;;;;;4992188;28;20447;-81
2022/03/02 00:54:20;;;;;;;44.90;30.58;;;4.80;99.90;;;;;;4996346;28;20386;-80
2022/03/02 00:56:46;;;;;;;38.38;28.80;;;4.80;99.90;;;;;;4986276;28;20054;-80
2022/03/02 00:59:11;;;;;;;42.55;30.20;;;4.80;99.90;;;;;;4984718;28;20042;-80
2022/03/02 01:01:37;;;;;;;44.22;31.45;;;4.80;99.90;;;;;;4985916;28;20124;-82
2022/03/02 01:04:02;;;;;;;53.92;33.72;;;4.90;99.90;;;;;;4990562;28;20063;-81
2022/03/02 01:06:28;;;;;;;41.35;29.20;;;4.90;99.90;;;;;;4989071;28;20057;-81
2022/03/02 01:08:54;;;;;;;70.00;32.63;;;4.90;99.90;;;;;;4991470;28;20050;-81
2022/03/02 01:11:19;;;;;;;45.35;30.30;;;4.90;99.90;;;;;;4989211;28;20038;-81
2022/03/02 01:13:46;;;;;;;43.65;32.05;;;4.90;99.90;;;;;;4990866;28;20341;-81
2022/03/02 01:16:14;;;;;;;43.20;29.40;;;4.90;99.90;;;;;;4989640;28;20072;-81
2022/03/02 01:18:40;;;;;;;45.15;30.10;;;4.90;99.90;;;;;;4979719;28;20121;-81
2022/03/02 01:21:05;;;;;;;40.78;28.33;;;4.90;99.90;;;;;;4992544;28;20069;-81
2022/03/02 01:23:32;;;;;;;40.55;30.23;;;4.90;99.90;;;;;;4994502;28;20046;-81
2022/03/02 01:25:58;;;;;;;42.95;29.98;;;4.90;99.90;;;;;;4992398;28;20059;-83
2022/03/02 01:28:23;;;;;;;44.22;30.45;;;4.90;99.90;;;;;;4993208;28;20050;-80
2022/03/02 01:30:49;;;;;;;47.70;30.30;;;4.90;99.90;;;;;;4991809;28;20088;-81
2022/03/02 01:33:15;;;;;;;40.33;31.48;;;4.90;99.90;;;;;;4993383;28;20038;-81
2022/03/02 01:35:40;;;;;;;43.55;31.52;;;4.90;99.90;;;;;;4990178;28;20140;-81
2022/03/02 01:38:06;;;;;;;50.63;32.92;;;4.90;99.90;;;;;;4990479;28;20077;-81
2022/03/02 01:40:31;;;;;;;43.85;32.95;;;4.90;99.90;;;;;;4989671;28;20129;-81
2022/03/02 01:42:57;;;;;;;43.70;31.55;;;4.90;99.90;;;;;;4989177;28;20045;-81
2022/03/02 01:45:23;;;;;;;46.13;31.67;;;4.90;99.90;;;;;;4990091;28;20496;-80
2022/03/02 01:47:49;;;;;;;43.90;29.10;;;4.80;99.90;;;;;;4989349;28;20034;-81
2022/03/02 01:50:16;;;;;;;46.90;30.90;;;4.90;99.90;;;;;;4986909;28;20053;-81
2022/03/02 01:52:42;;;;;;;50.40;33.25;;;4.90;99.90;;;;;;4988304;28;20516;-81
2022/03/02 01:55:12;;;;;;;43.63;30.02;;;4.80;99.90;;;;;;4986711;28;20043;-81
2022/03/02 01:57:39;;;;;;;49.28;33.15;;;4.80;99.90;;;;;;4985143;28;20034;-78
2022/03/02 02:00:10;;;;;;;49.92;32.22;;;4.80;99.90;;;;;;4990192;28;20046;-81
2022/03/02 02:02:35;;;;;;;42.83;30.95;;;4.80;99.90;;;;;;4986181;28;20066;-81
2022/03/02 02:05:01;;;;;;;54.65;33.60;;;4.80;99.90;;;;;;4987382;28;20066;-81
2022/03/02 02:07:27;;;;;;;49.42;32.50;;;4.80;99.90;;;;;;4983858;28;20046;-79
2022/03/02 02:09:57;;;;;;;42.63;30.92;;;4.80;99.90;;;;;;4982674;28;20046;-81
2022/03/02 02:12:22;;;;;;;50.92;32.88;;;4.80;99.90;;;;;;4986306;28;20043;-78
2022/03/02 02:14:48;;;;;;;48.17;32.10;;;4.80;99.90;;;;;;4988698;28;20444;-83
2022/03/02 02:17:14;;;;;;;52.15;32.28;;;4.80;99.90;;;;;;4989087;28;20066;-82
2022/03/02 02:19:39;;;;;;;46.75;31.58;;;4.80;99.90;;;;;;4987719;28;20113;-82
2022/03/02 02:22:05;;;;;;;43.47;32.00;;;4.70;99.90;;;;;;4988885;28;20042;-82
2022/03/02 02:24:30;;;;;;;47.20;33.63;;;4.70;99.90;;;;;;4988133;28;20046;-83
2022/03/02 02:26:57;;;;;;;50.45;33.25;;;4.70;99.90;;;;;;4984677;28;20043;-79
2022/03/02 02:29:25;;;;;;;49.45;33.30;;;4.60;99.90;;;;;;4986946;28;20050;-82
2022/03/02 02:31:51;;;;;;;44.75;31.17;;;4.70;99.90;;;;;;4986853;28;20046;-83
2022/03/02 02:34:17;;;;;;;47.42;32.63;;;4.70;99.90;;;;;;4987102;28;20461;-81
2022/03/02 02:36:43;;;;;;;48.80;31.15;;;4.70;99.90;;;;;;4987501;28;20129;-81
2022/03/02 02:39:09;;;;;;;47.65;30.73;;;4.70;99.90;;;;;;4986954;28;20130;-81
2022/03/02 02:41:35;;;;;;;47.55;31.42;;;4.70;99.90;;;;;;4988078;28;20077;-80
2022/03/02 02:44:01;;;;;;;46.35;31.40;;;4.60;99.90;;;;;;4987685;28;20074;-80
2022/03/02 02:46:27;;;;;;;50.47;34.75;;;4.60;99.90;;;;;;4986538;28;20042;-77
2022/03/02 02:48:52;;;;;;;47.92;31.05;;;4.50;99.90;;;;;;4989869;28;20088;-80
2022/03/02 02:51:18;;;;;;;47.22;34.00;;;4.50;99.90;;;;;;4985243;28;20035;-80
2022/03/02 02:53:44;;;;;;;47.17;33.03;;;4.40;99.90;;;;;;4993722;28;20370;-80
2022/03/02 02:56:10;;;;;;;50.88;33.65;;;4.40;99.90;;;;;;4990733;28;20058;-80
2022/03/02 02:58:35;;;;;;;46.92;33.45;;;4.40;99.90;;;;;;4991035;28;20413;-80
2022/03/02 03:01:02;;;;;;;47.17;32.75;;;4.30;99.90;;;;;;4990922;28;20084;-80
2022/03/02 03:03:27;;;;;;;51.35;35.88;;;4.20;99.90;;;;;;4990391;28;20043;-80
2022/03/02 03:05:53;;;;;;;49.90;31.25;;;4.20;99.90;;;;;;4989515;28;20057;-80
2022/03/02 03:08:19;;;;;;;47.40;34.92;;;4.10;99.90;;;;;;4992175;28;20046;-80
2022/03/02 03:10:45;;;;;;;54.35;37.67;;;4.00;99.90;;;;;;4990183;28;20141;-80
2022/03/02 03:13:12;;;;;;;52.47;34.50;;;3.90;99.90;;;;;;4992117;28;20050;-80
2022/03/02 03:15:38;;;;;;;50.33;33.53;;;3.80;99.90;;;;;;4991397;28;20046;-80
2022/03/02 03:18:05;;;;;;;52.53;32.38;;;3.70;99.90;;;;;;4992436;28;20053;-80
2022/03/02 03:20:32;;;;;;;48.85;34.17;;;3.80;99.90;;;;;;4991655;28;20042;-80
2022/03/02 03:22:58;;;;;;;51.58;34.67;;;3.70;99.90;;;;;;4971907;28;20392;-81
2022/03/02 03:25:25;;;;;;;47.33;31.48;;;3.70;99.90;;;;;;4991934;28;20050;-80
2022/03/02 03:27:51;;;;;;;49.65;33.95;;;3.60;99.90;;;;;;4989272;28;20050;-78
2022/03/02 03:30:20;;;;;;;50.20;35.03;;;3.60;99.90;;;;;;4992709;28;20174;-79
2022/03/02 03:32:47;;;;;;;51.17;34.35;;;3.50;99.90;;;;;;4985058;28;20055;-81
2022/03/02 03:35:14;;;;;;;55.65;34.53;;;3.50;99.90;;;;;;4991225;28;20097;-77
2022/03/02 03:37:41;;;;;;;55.78;36.70;;;3.40;99.90;;;;;;4990601;28;20034;-80
2022/03/02 03:40:08;;;;;;;54.22;37.17;;;3.40;99.90;;;;;;4992492;28;20053;-78
2022/03/02 03:42:34;;;;;;;54.58;37.78;;;3.40;99.90;;;;;;4996085;28;20046;-81
2022/03/02 03:45:00;;;;;;;53.83;35.47;;;3.30;99.90;;;;;;4994123;28;20129;-80
2022/03/02 03:47:25;;;;;;;54.88;37.03;;;3.20;99.90;;;;;;4991853;28;20046;-72
2022/03/02 03:49:51;;;;;;;59.30;38.08;;;3.20;99.90;;;;;;4990398;28;20038;-80
2022/03/02 03:52:17;;;;;;;58.58;37.22;;;3.20;99.90;;;;;;4989921;28;20052;-80
2022/03/02 03:54:42;;;;;;;59.13;39.10;;;3.10;99.90;;;;;;4989258;28;20492;-80
2022/03/02 03:57:08;;;;;;;61.70;38.92;;;3.10;99.90;;;;;;4983893;28;20077;-80
2022/03/02 03:59:34;;;;;;;57.92;35.88;;;3.10;99.90;;;;;;4987904;28;20042;-81
2022/03/02 04:01:59;;;;;;;61.28;39.67;;;3.00;99.90;;;;;;4988214;28;20062;-81
2022/03/02 04:04:25;;;;;;;61.08;40.13;;;3.00;99.90;;;;;;4990703;28;20042;-82
2022/03/02 04:06:51;;;;;;;62.30;37.25;;;3.00;99.90;;;;;;4990293;28;20497;-83
2022/03/02 04:09:17;;;;;;;77.70;41.63;;;3.00;99.90;;;;;;4989071;28;20049;-80
2022/03/02 04:11:43;;;;;;;55.20;36.58;;;3.00;99.90;;;;;;4990291;28;20050;-79
2022/03/02 04:14:09;;;;;;;64.18;40.20;;;2.90;99.90;;;;;;4990231;28;20054;-80
2022/03/02 04:16:35;;;;;;;54.80;36.05;;;3.00;99.90;;;;;;4991691;28;20042;-81
2022/03/02 04:19:01;;;;;;;59.08;37.15;;;2.90;99.90;;;;;;4989731;28;20176;-81
2022/03/02 04:21:26;;;;;;;92.82;41.60;;;2.90;99.90;;;;;;4986755;28;20230;-74
2022/03/02 04:23:52;;;;;;;66.50;42.70;;;2.90;99.90;;;;;;4993214;28;20181;-84
2022/03/02 04:26:18;;;;;;;65.97;39.55;;;2.80;99.90;;;;;;4988713;28;20484;-82
2022/03/02 04:28:44;;;;;;;58.72;36.10;;;2.70;99.90;;;;;;4988912;28;20070;-81
2022/03/02 04:31:10;;;;;;;58.55;39.38;;;2.70;99.90;;;;;;4991390;28;20078;-82
2022/03/02 04:33:36;;;;;;;56.80;40.03;;;2.60;99.90;;;;;;4991470;28;20061;-82
2022/03/02 04:36:02;;;;;;;58.42;37.50;;;2.60;99.90;;;;;;4990027;28;20140;-82
2022/03/02 04:38:28;;;;;;;62.55;40.15;;;2.60;99.90;;;;;;4990458;28;20137;-82
2022/03/02 04:40:53;;;;;;;53.95;36.33;;;2.60;99.90;;;;;;4989281;28;20133;-81
2022/03/02 04:43:19;;;;;;;60.08;38.38;;;2.50;99.90;;;;;;4989190;28;20096;-81
2022/03/02 04:45:44;;;;;;;64.35;40.15;;;2.50;99.90;;;;;;4989296;28;20046;-81
2022/03/02 04:48:10;;;;;;;58.45;39.20;;;2.40;99.90;;;;;;4991656;28;20056;-81
2022/03/02 04:50:36;;;;;;;54.22;35.67;;;2.40;99.90;;;;;;4971230;28;20501;-83
2022/03/02 04:53:02;;;;;;;62.55;37.72;;;2.30;99.90;;;;;;4992242;28;20117;-82
2022/03/02 04:55:28;;;;;;;59.38;37.35;;;2.30;99.90;;;;;;4990134;28;20088;-82
2022/03/02 04:57:56;;;;;;;66.15;42.35;;;2.30;99.90;;;;;;4990280;28;20065;-82
2022/03/02 05:00:25;;;;;;;66.55;41.13;;;2.30;99.90;;;;;;4990587;28;20051;-83
2022/03/02 05:02:52;;;;;;;66.35;39.88;;;2.30;99.90;;;;;;4988325;28;20480;-82
2022/03/02 05:05:20;;;;;;;58.28;38.00;;;2.30;99.90;;;;;;4987830;28;20057;-82
2022/03/02 05:07:46;;;;;;;63.42;39.55;;;2.20;99.90;;;;;;4989577;28;20081;-82
2022/03/02 05:10:14;;;;;;;61.63;38.92;;;2.20;99.90;;;;;;4989010;28;20111;-81
2022/03/02 05:12:40;;;;;;;69.53;42.63;;;2.10;99.90;;;;;;4974017;28;20101;-81
2022/03/02 05:15:07;;;;;;;65.00;39.15;;;2.00;99.90;;;;;;4987629;28;20050;-80
2022/03/02 05:17:34;;;;;;;62.53;40.10;;;2.00;99.90;;;;;;4989950;28;20050;-83
2022/03/02 05:19:59;;;;;;;72.63;40.45;;;2.10;99.90;;;;;;4990465;28;20049;-80
2022/03/02 05:22:25;;;;;;;70.70;42.38;;;2.10;99.90;;;;;;4989965;28;20046;-80
2022/03/02 05:24:50;;;;;;;69.00;41.28;;;2.10;99.90;;;;;;4990191;28;20113;-80
2022/03/02 05:27:16;;;;;;;66.88;40.47;;;2.10;99.90;;;;;;4989760;28;21671;-80
2022/03/02 05:29:42;;;;;;;60.20;38.60;;;2.00;99.90;;;;;;4991037;28;20034;-82
2022/03/02 05:32:08;;;;;;;64.82;40.05;;;2.00;99.90;;;;;;4990156;28;20056;-82
2022/03/02 05:34:34;;;;;;;56.53;37.55;;;2.00;99.90;;;;;;4986324;28;20038;-80
2022/03/02 05:36:59;;;;;;;73.05;40.58;;;2.00;99.90;;;;;;4993823;28;20050;-80
2022/03/02 05:39:25;;;;;;;64.70;38.65;;;1.90;99.90;;;;;;4993780;28;20793;-80
2022/03/02 05:41:51;;;;;;;70.80;40.50;;;1.80;99.90;;;;;;4991011;28;20038;-81
2022/03/02 05:44:17;;;;;;;65.80;41.03;;;1.80;99.90;;;;;;4988463;28;20092;-81
2022/03/02 05:46:43;;;;;;;62.15;41.88;;;1.80;99.90;;;;;;4989749;28;20030;-78
2022/03/02 05:49:09;;;;;;;64.32;39.53;;;1.80;99.90;;;;;;4986015;28;20493;-80
2022/03/02 05:51:35;;;;;;;65.28;40.95;;;1.80;99.90;;;;;;4987953;28;20046;-79
2022/03/02 05:54:03;;;;;;;65.10;41.60;;;1.80;99.90;;;;;;4989851;28;20092;-82
2022/03/02 05:56:29;;;;;;;63.42;41.88;;;1.80;99.90;;;;;;4979798;28;20074;-83
2022/03/02 05:58:55;;;;;;;62.40;39.25;;;1.80;99.90;;;;;;4987477;28;20042;-81
2022/03/02 06:01:21;;;;;;;65.70;39.53;;;1.70;99.90;;;;;;4987379;28;20411;-81
2022/03/02 06:03:47;;;;;;;57.38;40.15;;;1.70;99.90;;;;;;4987596;28;20551;-82
2022/03/02 06:06:13;;;;;;;61.58;38.78;;;1.60;99.90;;;;;;4989600;28;20547;-82
2022/03/02 06:08:39;;;;;;;65.00;38.85;;;1.50;99.90;;;;;;4988061;28;20046;-82
2022/03/02 06:11:06;;;;;;;66.75;40.45;;;1.50;99.90;;;;;;4985805;28;20077;-81
2022/03/02 06:13:32;;;;;;;66.40;40.15;;;1.50;99.90;;;;;;4984008;28;20043;-81
2022/03/02 06:15:58;;;;;;;61.67;38.92;;;1.50;99.90;;;;;;4988219;28;20526;-82
2022/03/02 06:18:25;;;;;;;70.85;42.80;;;1.50;99.90;;;;;;4990460;28;20092;-81
2022/03/02 06:20:52;;;;;;;63.75;39.08;;;1.50;99.90;;;;;;4995144;28;20196;-81
2022/03/02 06:23:20;;;;;;;65.97;42.97;;;1.50;99.90;;;;;;4994912;28;20105;-79
2022/03/02 06:25:46;;;;;;;76.78;40.55;;;1.50;99.90;;;;;;4990380;28;20046;-82
2022/03/02 06:28:12;;;;;;;62.65;39.60;;;1.60;99.90;;;;;;4998990;28;20057;-80
2022/03/02 06:30:37;;;;;;;64.05;41.10;;;1.60;99.90;;;;;;4990635;28;20054;-81
2022/03/02 06:33:03;;;;;;;62.80;40.80;;;1.50;99.90;;;;;;4990014;28;20057;-85
2022/03/02 06:35:29;;;;;;;67.25;41.95;;;1.50;99.90;;;;;;4989538;28;20049;-84
2022/03/02 06:37:55;;;;;;;68.82;40.13;;;1.50;99.90;;;;;;4989555;28;20125;-85
2022/03/02 06:40:21;;;;;;;69.75;41.13;;;1.50;99.90;;;;;;4994414;28;20054;-84
2022/03/02 06:43:00;;;;;;;66.13;39.40;;;1.50;99.90;;;;;;4989001;28;20527;-84
2022/03/02 06:46:02;;;;;;;63.60;40.47;;;1.60;99.90;;;;;;4989599;28;20120;-75
2022/03/02 06:48:36;;;;;;;68.20;40.95;;;1.50;99.90;;;;;;4990785;28;20050;-84
2022/03/02 06:51:03;;;;;;;65.70;40.80;;;1.60;99.90;;;;;;4988031;28;20429;-83
2022/03/02 06:53:35;;;;;;;66.55;39.60;;;1.60;99.90;;;;;;4988854;28;20129;-83
2022/03/02 06:56:04;;;;;;;64.60;38.92;;;1.60;99.90;;;;;;4980137;28;20113;-83
2022/03/02 06:58:41;;;;;;;60.27;37.57;;;1.60;99.90;;;;;;4983023;28;20412;-83
2022/03/02 07:01:10;;;;;;;63.25;40.70;;;1.60;99.90;;;;;;4989381;28;20057;-82
2022/03/02 07:03:47;;;;;;;64.03;38.33;;;1.60;99.90;;;;;;4987361;28;20062;-83
2022/03/02 07:06:14;;;;;;;66.20;40.53;;;1.70;99.90;;;;;;4988011;28;20134;-83
2022/03/02 07:08:43;;;;;;;70.07;41.35;;;1.60;99.90;;;;;;4989264;28;20038;-83
2022/03/02 07:11:09;;;;;;;61.65;37.08;;;1.70;99.90;;;;;;4986110;28;20053;-82
2022/03/02 07:13:36;;;;;;;62.40;41.33;;;1.80;99.90;;;;;;4989765;28;20548;-82
2022/03/02 07:16:02;;;;;;;63.67;42.15;;;1.70;99.90;;;;;;4990979;28;20050;-83
2022/03/02 07:18:28;;;;;;;61.65;38.33;;;1.80;99.90;;;;;;4990578;28;20105;-82
2022/03/02 07:20:56;;;;;;;62.25;41.50;;;1.80;99.90;;;;;;4986825;28;20485;-82
2022/03/02 07:23:23;;;;;;;62.83;39.50;;;1.80;99.90;;;;;;4988434;28;20041;-84
2022/03/02 07:25:50;;;;;;;63.92;38.10;;;1.80;99.90;;;;;;4988747;28;20039;-80
2022/03/02 07:28:16;;;;;;;61.20;40.00;;;1.90;99.90;;;;;;4988261;28;20054;-84
2022/03/02 07:30:46;;;;;;;57.40;38.92;;;1.90;99.90;;;;;;4988172;28;20050;-81
2022/03/02 07:33:15;;;;;;;63.80;39.75;;;2.00;99.90;;;;;;4984533;28;20488;-85
2022/03/02 07:35:46;;;;;;;61.33;38.30;;;2.00;99.90;;;;;;4988170;28;20441;-88
2022/03/02 07:38:12;;;;;;;63.35;39.42;;;2.00;99.90;;;;;;4989018;28;20111;-84
2022/03/02 07:40:37;;;;;;;57.53;38.30;;;2.20;99.90;;;;;;4990876;28;20093;-84
2022/03/02 07:43:03;;;;;;;65.20;41.58;;;2.10;99.90;;;;;;4990412;28;20838;-84
2022/03/02 07:45:29;;;;;;;66.95;42.35;;;2.30;99.90;;;;;;4988379;28;20042;-84
2022/03/02 07:47:56;;;;;;;65.85;38.58;;;2.40;99.90;;;;;;4991032;28;20117;-84
2022/03/02 07:50:22;;;;;;;60.17;40.70;;;2.40;99.90;;;;;;4992018;28;20038;-84
2022/03/02 07:52:51;;;;;;;66.47;41.55;;;2.40;99.90;;;;;;4990135;28;20046;-84
2022/03/02 07:55:18;;;;;;;60.20;37.33;;;2.50;99.90;;;;;;4991575;28;20054;-81
2022/03/02 07:57:44;;;;;;;56.85;38.20;;;2.60;99.90;;;;;;4991475;28;20042;-83
2022/03/02 08:00:11;;;;;;;58.70;37.78;;;2.70;99.90;;;;;;4983974;28;20530;-85
2022/03/02 08:02:40;;;;;;;57.83;37.13;;;2.70;99.90;;;;;;4991252;28;20072;-83
2022/03/02 08:05:07;;;;;;;64.28;41.28;;;2.80;99.90;;;;;;4990371;28;20477;-83
2022/03/02 08:07:34;;;;;;;59.42;38.47;;;2.90;99.90;;;;;;4991376;28;20145;-81
2022/03/02 08:10:00;;;;;;;57.55;36.72;;;2.90;99.90;;;;;;4991024;28;20133;-84
2022/03/02 08:12:26;;;;;;;61.80;38.33;;;3.10;99.90;;;;;;4991157;28;20121;-72
2022/03/02 08:14:52;;;;;;;55.67;38.63;;;3.10;99.90;;;;;;4992513;28;20100;-83
2022/03/02 08:17:19;;;;;;;59.42;39.70;;;3.20;99.90;;;;;;4994823;28;20070;-87
2022/03/02 08:19:48;;;;;;;54.55;37.33;;;3.30;99.90;;;;;;4995359;28;20460;-90
2022/03/02 08:22:18;;;;;;;59.40;40.13;;;3.40;99.90;;;;;;4993014;28;20104;-91
2022/03/02 08:24:54;;;;;;;52.75;37.42;;;3.40;99.90;;;;;;4995126;28;20035;-89
2022/03/02 08:27:21;;;;;;;61.10;37.38;;;3.50;99.90;;;;;;4994608;28;20054;-90
2022/03/02 08:29:53;;;;;;;60.00;37.90;;;3.60;99.90;;;;;;4997572;28;20057;-87
2022/03/02 08:32:21;;;;;;;55.78;35.72;;;3.60;99.90;;;;;;4984096;28;20042;-90
2022/03/02 08:34:48;;;;;;;51.42;35.75;;;3.70;99.90;;;;;;4995396;28;20045;-90
2022/03/02 08:37:17;;;;;;;51.30;36.17;;;3.70;99.90;;;;;;4996348;28;20069;-91
2022/03/02 08:39:43;;;;;;;57.25;37.25;;;3.80;99.90;;;;;;4998994;28;20038;-90
2022/03/02 08:42:09;;;;;;;54.88;36.97;;;3.90;99.90;;;;;;5000424;28;20045;-92
2022/03/02 08:44:35;;;;;;;55.28;35.13;;;4.00;99.90;;;;;;4999591;28;20078;-87
2022/03/02 08:47:01;;;;;;;52.25;34.13;;;4.10;99.90;;;;;;4994325;28;20100;-87
2022/03/02 08:49:26;;;;;;;59.42;36.10;;;4.20;99.90;;;;;;4991997;28;20440;-74
2022/03/02 08:51:54;;;;;;;54.10;35.80;;;4.30;99.90;;;;;;4990121;28;20096;-84
2022/03/02 08:54:20;;;;;;;54.28;34.08;;;4.50;99.90;;;;;;4990420;28;20101;-81
2022/03/02 08:56:48;;;;;;;49.17;35.42;;;4.60;99.90;;;;;;4988640;28;20054;-77
2022/03/02 08:59:17;;;;;;;50.38;36.03;;;4.60;99.90;;;;;;4980172;28;20038;-85
2022/03/02 09:02:05;;;;;;;48.90;34.13;;;4.70;99.90;;;;;;4995461;28;20055;-85
2022/03/02 09:04:33;;;;;;;47.75;33.38;;;4.70;99.90;;;;;;5002457;28;20070;-85
2022/03/02 09:07:01;;;;;;;49.53;33.28;;;4.80;99.90;;;;;;4999888;28;20051;-87
2022/03/02 09:09:26;;;;;;;51.65;31.77;;;4.90;99.90;;;;;;5000560;28;20446;-76
2022/03/02 09:11:55;;;;;;;47.20;32.53;;;5.00;99.90;;;;;;5007443;28;20037;-89
2022/03/02 09:14:21;;;;;;;52.25;35.15;;;5.00;99.90;;;;;;5011902;28;20056;-88
2022/03/02 09:16:47;;;;;;;45.15;31.25;;;5.00;99.90;;;;;;4999086;28;20069;-87
2022/03/02 09:19:13;;;;;;;47.75;33.17;;;5.10;99.90;;;;;;5008627;28;20030;-84
2022/03/02 09:21:38;;;;;;;47.40;30.80;;;5.10;99.90;;;;;;5013809;28;20022;-87
2022/03/02 09:24:05;;;;;;;44.40;31.40;;;5.10;99.90;;;;;;4999265;28;20081;-87
2022/03/02 09:26:32;;;;;;;50.03;32.08;;;5.00;99.90;;;;;;4994691;28;20121;-87
2022/03/02 09:29:02;;;;;;;44.38;31.08;;;5.20;99.90;;;;;;4991119;28;20456;-87
2022/03/02 09:31:28;;;;;;;44.85;30.40;;;5.30;99.90;;;;;;4993108;28;20053;-85
2022/03/02 09:33:56;;;;;;;62.80;32.88;;;5.40;99.90;;;;;;4983310;28;20046;-86
2022/03/02 09:36:24;;;;;;;46.03;31.50;;;5.30;99.90;;;;;;5001283;28;20056;-86
2022/03/02 09:38:51;;;;;;;46.13;29.42;;;5.50;99.90;;;;;;5002153;28;20042;-84
2022/03/02 09:41:41;;;;;;;41.63;29.20;;;5.50;99.90;;;;;;5011153;28;20058;-86
2022/03/02 09:44:11;;;;;;;41.80;28.35;;;5.50;99.90;;;;;;5007530;28;20038;-86
2022/03/02 09:46:39;;;;;;;45.17;31.95;;;5.70;99.90;;;;;;5008888;28;20042;-86
2022/03/02 09:49:11;;;;;;;41.80;30.33;;;5.80;99.90;;;;;;5008890;28;20038;-84
2022/03/02 09:51:38;;;;;;;45.70;30.80;;;5.80;99.90;;;;;;4995029;28;20125;-83
2022/03/02 09:54:05;;;;;;;43.25;29.13;;;5.80;99.90;;;;;;5012783;28;20049;-84
2022/03/02 09:56:35;;;;;;;42.78;30.05;;;6.00;99.90;;;;;;5006319;28;20042;-84
2022/03/02 09:59:06;;;;;;;42.20;29.40;;;6.10;99.90;;;;;;5009591;28;20043;-83
2022/03/02 10:01:34;;;;;;;49.35;31.05;;;6.20;99.90;;;;;;5006963;28;20497;-87
2022/03/02 10:04:21;;;;;;;37.33;25.25;;;6.10;99.90;;;;;;4998981;28;20047;-88
2022/03/02 10:06:55;;;;;;;41.95;28.85;;;6.10;99.90;;;;;;4974884;28;20046;-86
2022/03/02 10:09:21;;;;;;;41.05;27.42;;;6.20;99.90;;;;;;4987797;28;20572;-87
2022/03/02 10:11:48;;;;;;;39.42;25.17;;;6.30;99.90;;;;;;4992954;28;20038;-87
2022/03/02 10:14:19;;;;;;;43.25;26.63;;;6.30;99.90;;;;;;4993712;28;20054;-87
2022/03/02 10:16:45;;;;;;;45.25;30.23;;;6.30;99.90;;;;;;4989706;28;20385;-87
2022/03/02 10:19:22;;;;;;;40.72;29.35;;;6.40;99.90;;;;;;4993000;28;20069;-85
2022/03/02 10:22:06;;;;;;;42.55;27.05;;;6.40;99.90;;;;;;4990552;28;20078;-87
2022/03/02 10:24:42;;;;;;;40.92;26.65;;;6.50;99.90;;;;;;4989471;28;20085;-87
2022/03/02 10:27:15;;;;;;;35.08;25.33;;;6.50;99.90;;;;;;4987933;28;20773;-85
2022/03/02 10:30:00;;;;;;;38.67;27.70;;;6.70;99.90;;;;;;4988395;28;20046;-87
2022/03/02 10:32:32;;;;;;;36.20;27.77;;;6.60;99.90;;;;;;4988333;28;20057;-85
2022/03/02 10:35:04;;;;;;;43.72;29.17;;;6.70;99.90;;;;;;4990871;28;20050;-87
2022/03/02 10:37:35;;;;;;;41.15;27.52;;;6.80;99.90;;;;;;4990345;28;20100;-85
2022/03/02 10:40:09;;;;;;;40.03;26.77;;;6.80;99.90;;;;;;4990099;28;20073;-86
2022/03/02 10:42:52;;;;;;;42.22;25.77;;;6.80;99.90;;;;;;4989312;28;20137;-87
2022/03/02 10:45:22;;;;;;;34.85;25.02;;;6.90;99.90;;;;;;4989773;28;20048;-87
2022/03/02 10:48:02;;;;;;;38.25;25.55;;;7.10;99.90;;;;;;4989442;28;20496;-87
2022/03/02 10:50:34;;;;;;;33.60;23.55;;;7.10;99.90;;;;;;4989739;28;20134;-87
2022/03/02 10:53:03;;;;;;;38.05;27.00;;;7.10;99.90;;;;;;4989584;28;20093;-87
2022/03/02 10:55:31;;;;;;;39.25;26.55;;;7.10;99.90;;;;;;4980336;28;20057;-87
2022/03/02 10:58:00;;;;;;;38.17;26.50;;;7.20;99.90;;;;;;4989167;28;20049;-85
2022/03/02 11:00:25;;;;;;;36.92;24.92;;;7.20;99.90;;;;;;4988675;28;20054;-78
2022/03/02 11:02:57;;;;;;;37.55;25.10;;;7.40;99.90;;;;;;4989389;28;20054;-86
2022/03/02 11:05:24;;;;;;;37.97;25.05;;;7.30;99.90;;;;;;4993031;28;20058;-86
2022/03/02 11:07:50;;;;;;;32.67;22.40;;;7.40;99.90;;;;;;4989980;28;20070;-87
2022/03/02 11:10:20;;;;;;;40.25;27.85;;;7.40;99.90;;;;;;4973305;28;20054;-87
2022/03/02 11:12:47;;;;;;;34.80;22.93;;;7.40;99.90;;;;;;4995182;28;20923;-87
2022/03/02 11:15:15;;;;;;;37.15;25.45;;;7.50;99.90;;;;;;4995824;28;20504;-87
2022/03/02 11:17:56;;;;;;;38.13;26.00;;;7.50;99.90;;;;;;4993757;28;20424;-87
2022/03/02 11:20:24;;;;;;;33.28;24.30;;;7.50;99.90;;;;;;4993377;28;20062;-86
2022/03/02 11:23:02;;;;;;;33.70;24.70;;;7.70;99.90;;;;;;4994093;28;20038;-87
2022/03/02 11:25:48;;;;;;;31.42;22.85;;;7.70;99.90;;;;;;4993452;28;20149;-87
2022/03/02 11:28:18;;;;;;;34.50;23.92;;;7.70;99.90;;;;;;4995702;28;20078;-87
2022/03/02 11:30:48;;;;;;;39.15;24.95;;;7.80;99.90;;;;;;4999290;28;20042;-86
2022/03/02 11:33:15;;;;;;;32.03;22.80;;;7.90;99.90;;;;;;5003777;28;20505;-87
2022/03/02 11:35:42;;;;;;;31.95;23.83;;;7.90;99.90;;;;;;4996435;28;20050;-87
2022/03/02 11:38:08;;;;;;;29.90;21.38;;;8.00;99.90;;;;;;5000794;28;20135;-86
2022/03/02 11:40:52;;;;;;;36.83;25.25;;;7.90;99.90;;;;;;5000461;28;20073;-87
2022/03/02 11:43:25;;;;;;;38.05;25.40;;;7.90;99.90;;;;;;4993026;28;20094;-88
2022/03/02 11:45:56;;;;;;;37.80;23.45;;;8.00;99.90;;;;;;5000847;28;20058;-87
2022/03/02 11:48:28;;;;;;;32.17;23.90;;;8.00;99.90;;;;;;4998555;28;20061;-87
2022/03/02 11:51:13;;;;;;;32.10;23.25;;;8.10;99.90;;;;;;4994124;28;20042;-86
2022/03/02 11:53:59;;;;;;;36.58;25.17;;;8.10;99.90;;;;;;4992818;28;20092;-79
2022/03/02 11:56:26;;;;;;;37.83;26.27;;;8.20;99.90;;;;;;4984287;28;20042;-80
2022/03/02 11:58:57;;;;;;;38.60;25.95;;;8.10;99.90;;;;;;4987503;28;20057;-82
2022/03/02 12:01:24;;;;;;;32.00;23.45;;;8.20;99.90;;;;;;4975852;28;20413;-85
2022/03/02 12:04:02;;;;;;;31.42;22.73;;;8.10;99.90;;;;;;4990053;28;20042;-81
2022/03/02 12:06:30;;;;;;;30.85;21.67;;;8.20;99.90;;;;;;5004175;28;20030;-80
2022/03/02 12:08:57;;;;;;;30.05;22.17;;;8.20;99.90;;;;;;4996408;28;20069;-76
2022/03/02 12:11:25;;;;;;;30.23;22.33;;;8.30;99.90;;;;;;5000617;28;20042;-84
2022/03/02 12:14:12;;;;;;;31.67;21.63;;;8.30;99.90;;;;;;5005667;28;20054;-81
2022/03/02 12:16:47;;;;;;;31.38;20.77;;;8.20;99.90;;;;;;4994991;28;20054;-87
2022/03/02 12:19:39;;;;;;;33.92;21.73;;;8.30;99.90;;;;;;4991215;28;20031;-86
2022/03/02 12:22:06;;;;;;;30.00;21.17;;;8.30;99.90;;;;;;4984369;28;20066;-85
2022/03/02 12:24:34;;;;;;;29.55;19.60;;;8.30;99.90;;;;;;4974660;28;20437;-86
2022/03/02 12:27:08;;;;;;;28.88;19.52;;;8.60;99.90;;;;;;4982035;28;20049;-91
2022/03/02 12:29:40;;;;;;;25.92;18.95;;;8.50;99.90;;;;;;4995713;28;20523;-90
2022/03/02 12:32:11;;;;;;;29.63;21.05;;;8.60;99.90;;;;;;4993650;28;20081;-86
2022/03/02 12:34:40;;;;;;;28.25;18.85;;;8.50;99.90;;;;;;4990676;28;20560;-87
2022/03/02 12:37:08;;;;;;;26.27;17.70;;;8.40;99.90;;;;;;4992518;28;20034;-88
2022/03/02 12:39:35;;;;;;;29.48;21.30;;;8.70;99.90;;;;;;4990760;28;20050;-86